Terminal Aerodrome Forecast
Issued by NWS

Home | Current Version | Previous Version | Text Only | Print | Product List | Glossary On
Versions: 1 2 3 4 5 6 7 8 9 10 11 12 13 14 15 16 17 18 19 20 21 22 23 24 25 26 27 28 29 30 31 32
000
FTUS45 KGJT 021730
TAFMTJ
TAF
KMTJ 021730Z 0218/0318 31003KT P6SM FEW100 SCT150
     FM021900 34007KT P6SM SCT100 BKN200
     FM030200 14007KT P6SM FEW100 BKN200
     FM031200 11003KT P6SM VCSH SCT060 BKN120=

USA.gov is the U.S. government's official web portal to all federal, state and local government web resources and services.